createdAt,value
2023-05-14T00:00:13.650Z,53.31
2023-05-14T00:01:13.495Z,55.84
2023-05-14T00:02:13.513Z,56.00
2023-05-14T00:03:13.585Z,55.86
2023-05-14T00:04:14.477Z,56.10
2023-05-14T00:05:14.169Z,56.23
2023-05-14T00:06:13.435Z,56.16
2023-05-14T00:07:13.456Z,56.06
2023-05-14T00:08:13.521Z,55.67
2023-05-14T00:09:13.456Z,55.60
2023-05-14T00:10:13.410Z,54.36
2023-05-14T00:11:13.453Z,55.15
2023-05-14T00:12:13.426Z,54.57
2023-05-14T00:13:13.387Z,56.43
2023-05-14T00:14:13.430Z,54.72
2023-05-14T00:15:13.423Z,54.38
2023-05-14T00:16:13.414Z,53.98
2023-05-14T00:17:13.354Z,56.95
2023-05-14T00:18:14.405Z,52.91
2023-05-14T00:19:13.464Z,51.96
2023-05-14T00:20:14.206Z,55.27
2023-05-14T00:21:13.353Z,53.72
2023-05-14T00:22:13.365Z,54.23
2023-05-14T00:23:13.316Z,55.13
2023-05-14T00:24:13.334Z,53.31
2023-05-14T00:25:13.315Z,51.92
2023-05-14T00:26:13.303Z,53.93
2023-05-14T00:27:13.327Z,51.90
2023-05-14T00:28:13.335Z,53.21
2023-05-14T00:29:13.371Z,54.28
2023-05-14T00:30:13.433Z,52.50
2023-05-14T00:31:13.396Z,51.96
2023-05-14T00:32:13.432Z,51.71
2023-05-14T00:33:13.413Z,54.01
2023-05-14T00:34:13.443Z,54.02
2023-05-14T00:35:13.443Z,54.11
2023-05-14T00:36:13.422Z,54.12
2023-05-14T00:37:13.407Z,54.40
2023-05-14T00:38:13.397Z,53.92
2023-05-14T00:39:13.398Z,53.83
2023-05-14T00:40:13.420Z,54.29
2023-05-14T00:41:13.409Z,53.47
2023-05-14T00:42:13.429Z,52.84
2023-05-14T00:43:13.462Z,53.10
2023-05-14T00:44:13.377Z,53.91
2023-05-14T00:45:13.373Z,50.17
2023-05-14T00:46:13.372Z,53.71
2023-05-14T00:47:13.349Z,54.45
2023-05-14T00:48:13.374Z,51.36
2023-05-14T00:49:13.366Z,52.20
2023-05-14T00:50:13.676Z,51.20
2023-05-14T00:51:13.334Z,54.21
2023-05-14T00:52:13.311Z,52.31
2023-05-14T00:53:13.331Z,52.47
2023-05-14T00:54:13.337Z,52.06
2023-05-14T00:55:13.705Z,52.41
2023-05-14T00:56:13.279Z,51.55
2023-05-14T00:57:13.272Z,50.16
2023-05-14T00:58:13.312Z,52.08
2023-05-14T00:59:13.331Z,49.81
2023-05-14T01:00:14.309Z,50.10
2023-05-14T01:01:13.305Z,50.31
2023-05-14T01:02:13.280Z,50.36
2023-05-14T01:03:13.327Z,51.75
2023-05-14T01:04:13.250Z,52.99
2023-05-14T01:05:13.660Z,51.94
2023-05-14T01:06:13.204Z,54.03
2023-05-14T01:07:13.204Z,50.34
2023-05-14T01:08:13.221Z,51.01
2023-05-14T01:09:13.239Z,51.41
2023-05-14T01:10:13.232Z,51.58
2023-05-14T01:11:13.196Z,50.46
2023-05-14T01:12:13.187Z,49.66
2023-05-14T01:13:13.164Z,50.49
2023-05-14T01:14:13.144Z,50.21
2023-05-14T01:15:13.739Z,49.94
2023-05-14T01:16:13.203Z,49.50
2023-05-14T01:17:13.162Z,50.30
2023-05-14T01:18:13.286Z,48.16
2023-05-14T01:19:13.166Z,50.67
2023-05-14T01:20:13.199Z,48.48
2023-05-14T01:21:13.167Z,49.82
2023-05-14T01:22:13.170Z,47.88
2023-05-14T01:23:13.213Z,48.69
2023-05-14T01:24:13.230Z,48.37
2023-05-14T01:25:13.257Z,50.07
2023-05-14T01:26:13.262Z,49.96
2023-05-14T01:27:13.265Z,52.51
2023-05-14T01:28:13.320Z,50.32
2023-05-14T01:29:13.333Z,50.70
2023-05-14T01:30:13.697Z,47.78
2023-05-14T01:31:13.356Z,50.04
2023-05-14T01:32:13.488Z,49.84
2023-05-14T01:33:13.490Z,49.03
2023-05-14T01:34:13.417Z,49.61
2023-05-14T01:35:13.526Z,46.85
2023-05-14T01:36:13.469Z,49.01
2023-05-14T01:37:13.504Z,48.10
2023-05-14T01:38:14.192Z,49.72
2023-05-14T01:39:13.602Z,49.65
2023-05-14T01:40:13.617Z,47.39
2023-05-14T01:41:13.587Z,48.26
2023-05-14T01:42:13.613Z,46.87
2023-05-14T01:43:13.710Z,47.78
2023-05-14T01:44:13.682Z,46.71
2023-05-14T01:45:13.709Z,49.78
2023-05-14T01:46:13.791Z,47.59
2023-05-14T01:47:13.750Z,48.88
2023-05-14T01:48:13.754Z,46.57
2023-05-14T01:49:13.752Z,48.80
2023-05-14T01:50:14.232Z,46.88
2023-05-14T01:51:13.837Z,47.27
2023-05-14T01:52:13.848Z,47.96
2023-05-14T01:53:13.906Z,45.87
2023-05-14T01:54:14.709Z,47.30
2023-05-14T01:55:14.173Z,46.49
2023-05-14T01:56:13.948Z,46.32
2023-05-14T01:57:13.983Z,46.39
2023-05-14T01:58:13.984Z,48.15
2023-05-14T01:59:15.177Z,43.19
2023-05-14T02:00:14.243Z,46.32
2023-05-14T02:01:14.133Z,45.17
2023-05-14T02:02:14.118Z,47.09
2023-05-14T02:03:14.137Z,44.66
2023-05-14T02:04:14.229Z,44.76
2023-05-14T02:05:15.209Z,45.64
2023-05-14T02:06:14.227Z,47.67
2023-05-14T02:07:14.232Z,45.20
2023-05-14T02:08:14.286Z,45.18
2023-05-14T02:09:14.303Z,42.86
2023-05-14T02:10:14.318Z,46.95
2023-05-14T02:11:14.334Z,44.62
2023-05-14T02:12:14.352Z,44.01
2023-05-14T02:13:14.381Z,43.82
2023-05-14T02:14:14.399Z,44.02
2023-05-14T02:15:16.233Z,44.64
2023-05-14T02:16:14.698Z,46.34
2023-05-14T02:17:14.496Z,46.50
2023-05-14T02:18:14.539Z,44.73
2023-05-14T02:19:14.655Z,46.78
2023-05-14T02:20:15.764Z,44.78
2023-05-14T02:21:14.554Z,44.03
2023-05-14T02:22:14.614Z,43.48
2023-05-14T02:23:14.613Z,43.48
2023-05-14T02:24:14.659Z,46.79
2023-05-14T02:25:14.731Z,44.71
2023-05-14T02:26:14.673Z,43.46
2023-05-14T02:27:14.696Z,43.58
2023-05-14T02:28:14.690Z,42.85
2023-05-14T02:29:14.744Z,43.69
2023-05-14T02:30:15.225Z,42.64
2023-05-14T02:31:15.727Z,44.43
2023-05-14T02:32:14.814Z,43.77
2023-05-14T02:33:14.887Z,43.42
2023-05-14T02:34:14.828Z,43.08
2023-05-14T02:35:15.238Z,43.97
2023-05-14T02:36:14.872Z,46.79
2023-05-14T02:37:14.926Z,44.71
2023-05-14T02:38:14.901Z,46.34
2023-05-14T02:39:14.905Z,45.81
2023-05-14T02:40:14.956Z,46.04
2023-05-14T02:41:15.199Z,45.37
2023-05-14T02:42:15.027Z,44.72
2023-05-14T02:43:15.031Z,43.93
2023-05-14T02:44:15.697Z,43.77
2023-05-14T02:45:15.109Z,41.82
2023-05-14T02:46:15.209Z,43.49
2023-05-14T02:47:15.166Z,42.75
2023-05-14T02:48:15.228Z,42.93
2023-05-14T02:49:15.226Z,43.16
2023-05-14T02:50:15.270Z,43.68
2023-05-14T02:51:16.231Z,43.22
2023-05-14T02:52:15.303Z,42.00
2023-05-14T02:53:16.198Z,43.57
2023-05-14T02:54:17.250Z,40.80
2023-05-14T02:55:17.246Z,42.21
2023-05-14T02:56:15.740Z,42.91
2023-05-14T02:57:15.411Z,42.83
2023-05-14T02:58:17.313Z,44.37
2023-05-14T02:59:15.478Z,41.71
2023-05-14T03:00:15.505Z,41.75
2023-05-14T03:01:15.831Z,43.96
2023-05-14T03:02:15.636Z,42.42
2023-05-14T03:03:15.626Z,42.77
2023-05-14T03:04:15.593Z,41.79
2023-05-14T03:05:15.599Z,43.41
2023-05-14T03:06:15.752Z,41.16
2023-05-14T03:07:15.674Z,43.63
2023-05-14T03:08:15.665Z,40.76
2023-05-14T03:09:15.704Z,41.52
2023-05-14T03:10:15.738Z,41.60
2023-05-14T03:11:16.214Z,40.70
2023-05-14T03:12:15.776Z,42.44
2023-05-14T03:13:15.780Z,42.16
2023-05-14T03:14:15.845Z,42.27
2023-05-14T03:15:15.843Z,41.32
2023-05-14T03:16:16.255Z,41.72
2023-05-14T03:17:15.931Z,42.96
2023-05-14T03:18:15.959Z,40.77
2023-05-14T03:19:16.011Z,40.99
2023-05-14T03:20:16.010Z,42.84
2023-05-14T03:21:16.064Z,42.29
2023-05-14T03:22:16.160Z,40.57
2023-05-14T03:23:16.097Z,41.47
2023-05-14T03:24:16.146Z,40.63
2023-05-14T03:25:16.133Z,40.43
2023-05-14T03:26:16.215Z,43.78
2023-05-14T03:27:16.188Z,41.03
2023-05-14T03:28:16.239Z,40.82
2023-05-14T03:29:16.266Z,41.30
2023-05-14T03:30:16.315Z,41.61
2023-05-14T03:31:16.384Z,41.14
2023-05-14T03:32:16.386Z,43.09
2023-05-14T03:33:16.390Z,41.59
2023-05-14T03:34:16.444Z,41.25
2023-05-14T03:35:16.466Z,40.49
2023-05-14T03:36:16.486Z,40.06
2023-05-14T03:37:16.540Z,42.91
2023-05-14T03:38:16.536Z,40.73
2023-05-14T03:39:16.575Z,40.03
2023-05-14T03:40:17.267Z,39.52
2023-05-14T03:41:16.756Z,41.12
2023-05-14T03:42:16.721Z,40.74
2023-05-14T03:43:16.717Z,42.09
2023-05-14T03:44:16.723Z,39.99
2023-05-14T03:45:16.806Z,38.77
2023-05-14T03:46:17.242Z,39.29
2023-05-14T03:47:16.812Z,39.77
2023-05-14T03:48:16.949Z,38.88
2023-05-14T03:49:16.861Z,37.24
2023-05-14T03:50:16.880Z,36.16
2023-05-14T03:51:16.932Z,39.38
2023-05-14T03:52:16.915Z,40.66
2023-05-14T03:53:16.957Z,38.37
2023-05-14T03:54:17.013Z,37.70
2023-05-14T03:55:17.003Z,35.17
2023-05-14T03:56:17.258Z,39.15
2023-05-14T03:57:17.069Z,34.05
2023-05-14T03:58:17.118Z,37.13
2023-05-14T03:59:17.164Z,38.00
2023-05-14T04:00:17.181Z,36.77
2023-05-14T04:01:17.250Z,34.41
2023-05-14T04:02:17.250Z,36.88
2023-05-14T04:03:17.334Z,38.30
2023-05-14T04:04:17.430Z,36.65
2023-05-14T04:05:17.382Z,35.58
2023-05-14T04:06:17.396Z,37.72
2023-05-14T04:07:17.424Z,35.47
2023-05-14T04:08:17.461Z,36.60
2023-05-14T04:09:17.510Z,37.23
2023-05-14T04:10:17.514Z,36.11
2023-05-14T04:11:17.586Z,36.03
2023-05-14T04:12:17.589Z,34.46
2023-05-14T04:13:17.639Z,35.99
2023-05-14T04:14:17.700Z,36.79
2023-05-14T04:15:17.717Z,37.43
2023-05-14T04:16:17.791Z,37.13
2023-05-14T04:17:17.777Z,38.36
2023-05-14T04:18:17.765Z,35.71
2023-05-14T04:19:18.379Z,35.00
2023-05-14T04:20:18.760Z,36.82
2023-05-14T04:21:17.905Z,38.50
2023-05-14T04:22:17.898Z,37.84
2023-05-14T04:23:17.966Z,36.61
2023-05-14T04:24:17.985Z,39.16
2023-05-14T04:25:18.016Z,38.25
2023-05-14T04:26:18.083Z,38.22
2023-05-14T04:27:18.056Z,35.69
2023-05-14T04:28:18.155Z,34.36
2023-05-14T04:29:18.123Z,38.00
2023-05-14T04:30:18.212Z,35.72
2023-05-14T04:31:18.222Z,36.79
2023-05-14T04:32:18.275Z,36.69
2023-05-14T04:33:18.331Z,34.82
2023-05-14T04:34:18.392Z,35.59
2023-05-14T04:35:18.413Z,33.43
2023-05-14T04:36:18.766Z,33.19
2023-05-14T04:37:18.535Z,33.06
2023-05-14T04:38:18.517Z,31.55
2023-05-14T04:39:18.534Z,34.36
2023-05-14T04:40:18.583Z,31.96
2023-05-14T04:41:18.734Z,34.98
2023-05-14T04:42:18.690Z,33.32
2023-05-14T04:43:18.733Z,34.65
2023-05-14T04:44:18.710Z,28.79
2023-05-14T04:45:18.749Z,29.61
2023-05-14T04:46:19.337Z,33.63
2023-05-14T04:47:18.864Z,29.42
2023-05-14T04:48:18.901Z,30.99
2023-05-14T04:49:18.927Z,31.09
2023-05-14T04:50:18.952Z,32.70
2023-05-14T04:51:18.971Z,31.91
2023-05-14T04:52:19.036Z,34.96
2023-05-14T04:53:19.029Z,33.11
2023-05-14T04:54:19.143Z,33.20
2023-05-14T04:55:19.116Z,31.55
2023-05-14T04:56:19.203Z,30.79
2023-05-14T04:57:19.199Z,30.92
2023-05-14T04:58:19.256Z,31.12
2023-05-14T04:59:19.268Z,32.93
2023-05-14T05:00:19.310Z,32.41
2023-05-14T05:01:19.357Z,30.35
2023-05-14T05:02:19.366Z,28.16
2023-05-14T05:03:19.572Z,29.40
2023-05-14T05:04:19.535Z,27.85
2023-05-14T05:05:19.509Z,32.85
2023-05-14T05:06:19.531Z,30.44
2023-05-14T05:07:19.563Z,28.22
2023-05-14T05:08:19.653Z,28.81
2023-05-14T05:09:19.703Z,27.05
2023-05-14T05:10:19.762Z,28.05
2023-05-14T05:11:19.821Z,26.46
2023-05-14T05:12:19.823Z,27.04
2023-05-14T05:13:19.895Z,30.54
2023-05-14T05:14:19.949Z,28.03
2023-05-14T05:15:19.952Z,29.78
2023-05-14T05:16:20.031Z,28.20
2023-05-14T05:17:20.029Z,26.91
2023-05-14T05:18:20.064Z,28.60
2023-05-14T05:19:24.357Z,28.28
2023-05-14T05:20:21.143Z,28.51
2023-05-14T05:21:20.114Z,28.46
2023-05-14T05:22:20.155Z,28.63
2023-05-14T05:23:20.068Z,29.38
2023-05-14T05:24:20.046Z,29.08
2023-05-14T05:25:20.038Z,31.39
2023-05-14T05:26:20.075Z,27.66
2023-05-14T05:27:20.033Z,25.00
2023-05-14T05:28:20.023Z,26.58
2023-05-14T05:29:20.006Z,27.78
2023-05-14T05:30:20.008Z,29.21
2023-05-14T05:31:20.173Z,28.18
2023-05-14T05:32:19.982Z,25.54
2023-05-14T05:33:20.028Z,28.66
2023-05-14T05:34:20.032Z,28.23
2023-05-14T05:35:20.046Z,29.38
2023-05-14T05:36:20.132Z,27.10
2023-05-14T05:37:20.122Z,27.93
2023-05-14T05:38:20.203Z,30.72
2023-05-14T05:39:20.250Z,29.40
2023-05-14T05:40:20.285Z,26.52
2023-05-14T05:41:20.322Z,28.43
2023-05-14T05:42:20.379Z,32.13
2023-05-14T05:43:20.389Z,29.33
2023-05-14T05:44:20.455Z,25.91
2023-05-14T05:45:20.494Z,30.31
2023-05-14T05:46:20.553Z,27.85
2023-05-14T05:47:20.604Z,31.24
2023-05-14T05:48:20.623Z,27.96
2023-05-14T05:49:20.652Z,28.07
2023-05-14T05:50:20.757Z,31.86
2023-05-14T05:51:20.751Z,26.80
2023-05-14T05:52:20.796Z,28.27
2023-05-14T05:53:20.810Z,30.22
2023-05-14T05:54:20.891Z,30.68
2023-05-14T05:55:20.965Z,30.73
2023-05-14T05:56:21.158Z,31.80
2023-05-14T05:57:21.037Z,29.62
2023-05-14T05:58:21.094Z,32.29
2023-05-14T05:59:21.114Z,28.67
2023-05-14T06:00:21.334Z,29.17
2023-05-14T06:01:21.254Z,30.49
2023-05-14T06:02:21.347Z,27.64
2023-05-14T06:03:21.367Z,29.58
2023-05-14T06:04:21.376Z,27.14
2023-05-14T06:05:21.429Z,32.58
2023-05-14T06:06:21.471Z,30.15
2023-05-14T06:07:21.477Z,29.15
2023-05-14T06:08:21.549Z,25.00
2023-05-14T06:09:21.586Z,27.48
2023-05-14T06:10:21.842Z,26.63
2023-05-14T06:11:21.646Z,31.49
2023-05-14T06:12:21.699Z,29.74
2023-05-14T06:13:21.761Z,29.82
2023-05-14T06:14:21.850Z,29.39
2023-05-14T06:15:21.817Z,28.00
2023-05-14T06:16:21.913Z,28.66
2023-05-14T06:17:21.965Z,28.44
2023-05-14T06:18:22.011Z,25.18
2023-05-14T06:19:22.013Z,26.16
2023-05-14T06:20:22.312Z,30.11
2023-05-14T06:21:22.280Z,30.63
2023-05-14T06:22:22.149Z,29.79
2023-05-14T06:23:22.198Z,27.17
2023-05-14T06:24:22.244Z,26.54
2023-05-14T06:25:22.292Z,29.51
2023-05-14T06:26:22.810Z,32.53
2023-05-14T06:27:22.342Z,30.35
2023-05-14T06:28:22.411Z,29.02
2023-05-14T06:29:22.456Z,31.28
2023-05-14T06:30:22.732Z,29.30
2023-05-14T06:31:22.668Z,29.73
2023-05-14T06:32:22.715Z,24.86
2023-05-14T06:33:22.626Z,31.13
2023-05-14T06:34:22.667Z,29.40
2023-05-14T06:35:22.698Z,28.77
2023-05-14T06:36:22.743Z,29.23
2023-05-14T06:37:22.807Z,31.12
2023-05-14T06:38:22.771Z,33.02
2023-05-14T06:39:22.814Z,33.29
2023-05-14T06:40:23.359Z,29.33
2023-05-14T06:41:22.895Z,27.98
2023-05-14T06:42:22.961Z,27.88
2023-05-14T06:43:23.017Z,31.26
2023-05-14T06:44:23.033Z,29.53
2023-05-14T06:45:23.059Z,27.77
2023-05-14T06:46:23.282Z,28.55
2023-05-14T06:47:23.220Z,27.97
2023-05-14T06:48:23.314Z,26.50
2023-05-14T06:49:23.211Z,29.14
2023-05-14T06:50:23.507Z,28.90
2023-05-14T06:51:23.300Z,30.71
2023-05-14T06:52:23.379Z,31.45
2023-05-14T06:53:23.381Z,31.52
2023-05-14T06:54:23.430Z,30.49
2023-05-14T06:55:23.446Z,28.26
2023-05-14T06:56:23.487Z,30.62
2023-05-14T06:57:23.553Z,29.90
2023-05-14T06:58:23.567Z,27.86
2023-05-14T06:59:23.611Z,29.24
2023-05-14T07:00:23.820Z,28.50
2023-05-14T07:01:23.716Z,27.84
2023-05-14T07:02:23.786Z,29.69
2023-05-14T07:03:23.796Z,33.14
2023-05-14T07:04:23.826Z,30.69
2023-05-14T07:05:23.863Z,30.30
2023-05-14T07:06:23.957Z,30.53
2023-05-14T07:07:23.966Z,28.12
2023-05-14T07:08:24.004Z,29.08
2023-05-14T07:09:24.043Z,31.19
2023-05-14T07:10:24.231Z,28.53
2023-05-14T07:11:24.100Z,28.03
2023-05-14T07:12:24.226Z,33.51
2023-05-14T07:13:24.908Z,29.30
2023-05-14T07:14:24.239Z,29.46
2023-05-14T07:15:24.259Z,30.08
2023-05-14T07:16:24.324Z,29.88
2023-05-14T07:17:24.467Z,28.75
2023-05-14T07:18:24.395Z,30.78
2023-05-14T07:19:24.434Z,29.27
2023-05-14T07:20:24.712Z,28.46
2023-05-14T07:21:24.539Z,28.79
2023-05-14T07:22:24.530Z,26.89
2023-05-14T07:23:24.589Z,28.76
2023-05-14T07:24:24.663Z,29.49
2023-05-14T07:25:24.663Z,29.43
2023-05-14T07:26:24.733Z,32.63
2023-05-14T07:27:24.775Z,28.59
2023-05-14T07:28:24.836Z,31.30
2023-05-14T07:29:24.832Z,28.55
2023-05-14T07:30:25.249Z,30.30
2023-05-14T07:31:24.997Z,28.81
2023-05-14T07:32:25.150Z,29.90
2023-05-14T07:33:25.026Z,29.90
2023-05-14T07:34:25.077Z,28.07
2023-05-14T07:35:25.112Z,27.65
2023-05-14T07:36:25.183Z,30.56
2023-05-14T07:37:25.231Z,29.35
2023-05-14T07:38:25.320Z,29.82
2023-05-14T07:39:25.319Z,31.84
2023-05-14T07:40:25.564Z,29.03
2023-05-14T07:41:25.394Z,29.18
2023-05-14T07:42:35.223Z,30.05
2023-05-14T07:43:26.431Z,30.29
2023-05-14T07:44:25.455Z,30.28
2023-05-14T07:45:25.452Z,30.25
2023-05-14T07:46:25.389Z,26.54
2023-05-14T07:47:25.500Z,30.30
2023-05-14T07:48:25.428Z,33.47
2023-05-14T07:49:25.385Z,31.47
2023-05-14T07:50:25.563Z,27.66
2023-05-14T07:51:25.836Z,29.94
2023-05-14T07:52:25.362Z,30.81
2023-05-14T07:53:25.344Z,32.84
2023-05-14T07:54:25.351Z,30.50
2023-05-14T07:55:25.326Z,28.75
2023-05-14T07:56:25.340Z,30.85
2023-05-14T07:57:25.400Z,29.09
2023-05-14T07:58:25.443Z,31.64
2023-05-14T07:59:25.468Z,34.72
2023-05-14T08:00:25.734Z,31.96
2023-05-14T08:01:25.515Z,30.64
2023-05-14T08:02:25.865Z,30.42
2023-05-14T08:03:25.690Z,35.08
2023-05-14T08:04:25.676Z,32.99
2023-05-14T08:05:25.706Z,34.06
2023-05-14T08:06:25.732Z,36.79
2023-05-14T08:07:25.779Z,34.99
2023-05-14T08:08:25.804Z,37.74
2023-05-14T08:09:25.882Z,37.93
2023-05-14T08:10:26.074Z,34.66
2023-05-14T08:11:25.937Z,38.02
2023-05-14T08:12:26.018Z,37.37
2023-05-14T08:13:26.008Z,39.46
2023-05-14T08:14:26.104Z,36.82
2023-05-14T08:15:27.734Z,37.48
2023-05-14T08:16:26.173Z,38.54
2023-05-14T08:17:26.215Z,34.65
2023-05-14T08:18:26.244Z,37.21
2023-05-14T08:19:26.246Z,39.66
2023-05-14T08:20:26.610Z,38.01
2023-05-14T08:21:26.333Z,39.73
2023-05-14T08:22:26.392Z,36.18
2023-05-14T08:23:26.399Z,35.08
2023-05-14T08:24:26.423Z,37.45
2023-05-14T08:25:26.460Z,31.95
2023-05-14T08:26:26.463Z,33.81
2023-05-14T08:27:26.528Z,35.05
2023-05-14T08:28:26.575Z,36.44
2023-05-14T08:29:26.618Z,36.75
2023-05-14T08:30:26.984Z,36.60
2023-05-14T08:31:26.813Z,36.83
2023-05-14T08:32:26.803Z,37.52
2023-05-14T08:33:26.741Z,37.08
2023-05-14T08:34:26.784Z,37.38
2023-05-14T08:35:26.811Z,37.08
2023-05-14T08:36:26.885Z,37.27
2023-05-14T08:37:26.899Z,41.95
2023-05-14T08:38:26.936Z,36.35
2023-05-14T08:39:26.933Z,41.04
2023-05-14T08:40:27.201Z,39.98
2023-05-14T08:41:27.005Z,40.32
2023-05-14T08:42:27.332Z,40.42
2023-05-14T08:43:27.058Z,41.29
2023-05-14T08:44:27.086Z,43.01
2023-05-14T08:45:27.100Z,43.56
2023-05-14T08:46:27.113Z,44.08
2023-05-14T08:47:27.201Z,43.23
2023-05-14T08:48:27.276Z,45.68
2023-05-14T08:49:27.254Z,43.27
2023-05-14T08:50:27.575Z,45.08
2023-05-14T08:51:27.256Z,42.88
2023-05-14T08:52:27.294Z,45.72
2023-05-14T08:53:27.311Z,46.82
2023-05-14T08:54:27.347Z,46.37
2023-05-14T08:55:27.374Z,45.50
2023-05-14T08:56:27.409Z,47.79
2023-05-14T08:57:27.457Z,47.33
2023-05-14T08:58:27.437Z,43.74
2023-05-14T08:59:27.507Z,46.81
2023-05-14T09:00:27.737Z,46.02
2023-05-14T09:01:27.581Z,45.66
2023-05-14T09:02:27.869Z,47.50
2023-05-14T09:03:27.614Z,49.19
2023-05-14T09:04:27.619Z,48.06
2023-05-14T09:05:27.666Z,50.55
2023-05-14T09:06:27.672Z,48.93
2023-05-14T09:07:27.701Z,49.54
2023-05-14T09:08:27.723Z,51.54
2023-05-14T09:09:27.770Z,48.65
2023-05-14T09:10:27.906Z,49.39
2023-05-14T09:11:27.820Z,52.14
2023-05-14T09:12:27.849Z,49.38
2023-05-14T09:13:28.382Z,48.80
2023-05-14T09:14:27.859Z,49.71
2023-05-14T09:15:27.851Z,50.17
2023-05-14T09:16:27.921Z,48.74
2023-05-14T09:17:28.042Z,49.04
2023-05-14T09:18:27.974Z,51.16
2023-05-14T09:19:27.965Z,49.87
2023-05-14T09:20:28.316Z,51.10
2023-05-14T09:21:28.042Z,52.53
2023-05-14T09:22:28.046Z,47.69
2023-05-14T09:23:28.024Z,51.03
2023-05-14T09:24:28.078Z,52.48
2023-05-14T09:25:28.077Z,52.93
2023-05-14T09:26:28.145Z,54.10
2023-05-14T09:27:28.147Z,53.02
2023-05-14T09:28:28.168Z,52.94
2023-05-14T09:29:28.189Z,51.96
2023-05-14T09:30:28.281Z,53.36
2023-05-14T09:31:28.339Z,53.03
2023-05-14T09:32:28.280Z,51.70
2023-05-14T09:33:28.247Z,51.95
2023-05-14T09:34:28.281Z,54.99
2023-05-14T09:35:28.340Z,55.60
2023-05-14T09:36:28.345Z,54.60
2023-05-14T09:37:28.355Z,56.07
2023-05-14T09:38:28.354Z,54.71
2023-05-14T09:39:28.401Z,55.02
2023-05-14T09:40:28.795Z,55.42
2023-05-14T09:41:28.421Z,53.70
2023-05-14T09:42:28.859Z,55.83
2023-05-14T09:43:28.465Z,55.15
2023-05-14T09:44:28.515Z,55.95
2023-05-14T09:45:28.503Z,55.80
2023-05-14T09:46:28.526Z,50.86
2023-05-14T09:47:28.706Z,55.40
2023-05-14T09:48:28.574Z,55.29
2023-05-14T09:49:28.557Z,54.33
2023-05-14T09:50:28.540Z,51.19
2023-05-14T09:51:28.601Z,54.00
2023-05-14T09:52:28.605Z,56.43
2023-05-14T09:53:28.642Z,52.80
2023-05-14T09:54:28.635Z,54.24
2023-05-14T09:55:28.638Z,52.81
2023-05-14T09:56:28.692Z,54.99
2023-05-14T09:57:29.353Z,54.37
2023-05-14T09:58:28.715Z,53.06
2023-05-14T09:59:28.744Z,54.20
2023-05-14T10:00:28.742Z,57.00
2023-05-14T10:01:28.754Z,55.10
2023-05-14T10:02:28.868Z,52.27
2023-05-14T10:03:28.809Z,54.66
2023-05-14T10:04:28.941Z,53.97
2023-05-14T10:05:28.852Z,53.67
2023-05-14T10:06:28.849Z,52.95
2023-05-14T10:07:28.855Z,54.96
2023-05-14T10:08:28.894Z,50.94
2023-05-14T10:09:28.941Z,54.84
2023-05-14T10:10:29.151Z,53.01
2023-05-14T10:11:28.963Z,52.45
2023-05-14T10:12:28.966Z,54.22
2023-05-14T10:13:28.968Z,55.41
2023-05-14T10:14:29.007Z,53.21
2023-05-14T10:15:28.979Z,55.65
2023-05-14T10:16:29.081Z,55.13
2023-05-14T10:17:29.091Z,54.95
2023-05-14T10:18:29.047Z,55.95
2023-05-14T10:19:29.142Z,54.83
2023-05-14T10:20:29.097Z,55.60
2023-05-14T10:21:29.096Z,54.60
2023-05-14T10:22:29.144Z,55.53
2023-05-14T10:23:29.143Z,53.39
2023-05-14T10:24:29.192Z,51.96
2023-05-14T10:25:29.206Z,52.98
2023-05-14T10:26:29.268Z,54.90
2023-05-14T10:27:29.270Z,52.56
2023-05-14T10:28:29.224Z,52.60
2023-05-14T10:29:29.293Z,53.72
2023-05-14T10:30:29.293Z,52.72
2023-05-14T10:31:29.364Z,54.60
2023-05-14T10:32:29.306Z,52.77
2023-05-14T10:33:29.301Z,57.10
2023-05-14T10:34:29.339Z,54.43
2023-05-14T10:35:29.362Z,54.67
2023-05-14T10:36:29.355Z,51.00
2023-05-14T10:37:29.383Z,56.15
2023-05-14T10:38:29.425Z,52.52
2023-05-14T10:39:29.381Z,56.44
2023-05-14T10:40:29.385Z,57.04
2023-05-14T10:41:29.411Z,54.51
2023-05-14T10:42:29.437Z,53.92
2023-05-14T10:43:29.447Z,52.94
2023-05-14T10:44:29.446Z,55.19
2023-05-14T10:45:29.497Z,57.86
2023-05-14T10:46:29.516Z,55.28
2023-05-14T10:47:29.867Z,54.90
2023-05-14T10:48:29.559Z,54.33
2023-05-14T10:49:42.884Z,56.67
2023-05-14T10:50:30.496Z,56.88
2023-05-14T10:51:29.552Z,57.20
2023-05-14T10:52:29.498Z,54.37
2023-05-14T10:53:29.538Z,57.63
2023-05-14T10:54:29.483Z,55.74
2023-05-14T10:55:29.493Z,53.76
2023-05-14T10:56:29.476Z,57.51
2023-05-14T10:57:29.540Z,55.11
2023-05-14T10:58:29.459Z,58.37
2023-05-14T10:59:29.472Z,59.09
2023-05-14T11:00:30.373Z,60.45
2023-05-14T11:01:29.536Z,58.43
2023-05-14T11:02:29.915Z,57.83
2023-05-14T11:03:29.581Z,57.91
2023-05-14T11:04:29.457Z,55.05
2023-05-14T11:05:29.421Z,56.88
2023-05-14T11:06:29.434Z,52.59
2023-05-14T11:07:29.408Z,54.73
2023-05-14T11:08:29.565Z,56.48
2023-05-14T11:09:29.394Z,56.59
2023-05-14T11:10:29.399Z,51.86
2023-05-14T11:11:29.358Z,53.78
2023-05-14T11:12:29.396Z,53.13
2023-05-14T11:13:29.387Z,57.65
2023-05-14T11:14:29.413Z,56.70
2023-05-14T11:15:29.421Z,55.40
2023-05-14T11:16:29.385Z,55.14
2023-05-14T11:17:29.407Z,49.82
2023-05-14T11:18:29.396Z,54.08
2023-05-14T11:19:29.341Z,54.15
2023-05-14T11:20:29.343Z,57.52
2023-05-14T11:21:29.391Z,54.65
2023-05-14T11:22:29.868Z,54.39
2023-05-14T11:23:29.305Z,57.89
2023-05-14T11:24:29.276Z,58.48
2023-05-14T11:25:29.291Z,55.00
2023-05-14T11:26:29.302Z,53.81
2023-05-14T11:27:29.300Z,53.86
2023-05-14T11:28:29.277Z,52.93
2023-05-14T11:29:29.259Z,53.80
2023-05-14T11:30:29.268Z,54.04
2023-05-14T11:31:29.297Z,54.44
2023-05-14T11:32:29.434Z,54.16
2023-05-14T11:33:29.255Z,50.18
2023-05-14T11:34:29.247Z,53.90
2023-05-14T11:35:29.237Z,56.43
2023-05-14T11:36:29.243Z,55.63
2023-05-14T11:37:29.254Z,48.68
2023-05-14T11:38:29.248Z,52.90
2023-05-14T11:39:29.273Z,51.14
2023-05-14T11:40:29.223Z,48.82
2023-05-14T11:41:29.261Z,53.36
2023-05-14T11:42:29.259Z,55.04
2023-05-14T11:43:29.376Z,50.72
2023-05-14T11:44:29.282Z,52.66
2023-05-14T11:45:29.304Z,56.89
2023-05-14T11:46:29.354Z,48.57
2023-05-14T11:47:29.336Z,53.51
2023-05-14T11:48:29.335Z,52.67
2023-05-14T11:49:29.278Z,49.07
2023-05-14T11:50:29.301Z,49.24
2023-05-14T11:51:29.276Z,49.65
2023-05-14T11:52:29.309Z,51.08
2023-05-14T11:53:29.292Z,51.61
2023-05-14T11:54:29.365Z,52.03
2023-05-14T11:55:29.319Z,49.03
2023-05-14T11:56:29.327Z,48.71
2023-05-14T11:57:29.372Z,52.21
2023-05-14T11:58:29.395Z,47.56
2023-05-14T11:59:29.411Z,51.73
2023-05-14T12:00:29.359Z,48.78
2023-05-14T12:01:29.362Z,52.39
2023-05-14T12:02:29.548Z,47.19
2023-05-14T12:03:29.802Z,52.87
2023-05-14T12:04:29.484Z,50.68
2023-05-14T12:05:29.444Z,49.64
2023-05-14T12:06:29.456Z,49.27
2023-05-14T12:07:29.438Z,47.16
2023-05-14T12:08:29.438Z,49.34
2023-05-14T12:09:29.444Z,46.78
2023-05-14T12:10:29.466Z,46.96
2023-05-14T12:11:29.482Z,44.26
2023-05-14T12:12:29.447Z,48.22
2023-05-14T12:13:29.478Z,48.95
2023-05-14T12:14:29.480Z,44.19
2023-05-14T12:15:29.510Z,45.01
2023-05-14T12:16:29.561Z,48.85
2023-05-14T12:17:29.581Z,47.18
2023-05-14T12:18:30.046Z,45.96
2023-05-14T12:19:29.572Z,48.63
2023-05-14T12:20:29.584Z,48.67
2023-05-14T12:21:29.554Z,44.40
2023-05-14T12:22:29.604Z,49.18
2023-05-14T12:23:29.928Z,44.72
2023-05-14T12:24:29.547Z,45.79
2023-05-14T12:25:29.592Z,45.88
2023-05-14T12:26:29.578Z,47.27
2023-05-14T12:27:29.589Z,46.61
2023-05-14T12:28:29.591Z,46.06
2023-05-14T12:29:29.601Z,44.24
2023-05-14T12:30:29.673Z,41.16
2023-05-14T12:31:29.707Z,45.19
2023-05-14T12:32:29.572Z,44.14
2023-05-14T12:33:29.936Z,41.74
2023-05-14T12:34:29.637Z,42.92
2023-05-14T12:35:29.652Z,44.35
2023-05-14T12:36:29.660Z,42.00
2023-05-14T12:37:31.221Z,43.05
2023-05-14T12:38:29.919Z,40.19
2023-05-14T12:39:29.672Z,42.77
2023-05-14T12:40:29.663Z,40.42
2023-05-14T12:41:29.664Z,46.09
2023-05-14T12:42:29.648Z,43.11
2023-05-14T12:43:29.919Z,40.09
2023-05-14T12:44:29.709Z,43.83
2023-05-14T12:45:29.708Z,43.51
2023-05-14T12:46:29.738Z,41.36
2023-05-14T12:47:29.669Z,44.14
2023-05-14T12:48:29.685Z,40.96
2023-05-14T12:49:29.696Z,41.67
2023-05-14T12:50:29.715Z,42.19
2023-05-14T12:51:29.748Z,43.63
2023-05-14T12:53:29.681Z,46.61